sensor_id;sensor_type;location;lat;lon;timestamp;P1;durP1;ratioP1;P2;durP2;ratioP2
44746;SDS011;30472;49.490;10.972;2022-08-19T00:01:47;23.13;;;20.87;;
44746;SDS011;30472;49.490;10.972;2022-08-19T00:04:14;23.80;;;21.57;;
44746;SDS011;30472;49.490;10.972;2022-08-19T00:06:42;23.23;;;21.13;;
44746;SDS011;30472;49.490;10.972;2022-08-19T00:09:10;23.77;;;21.40;;
44746;SDS011;30472;49.490;10.972;2022-08-19T00:11:37;23.00;;;20.57;;
44746;SDS011;30472;49.490;10.972;2022-08-19T00:14:07;22.87;;;20.67;;
44746;SDS011;30472;49.490;10.972;2022-08-19T00:16:34;24.27;;;21.97;;
44746;SDS011;30472;49.490;10.972;2022-08-19T00:19:01;23.80;;;21.43;;
44746;SDS011;30472;49.490;10.972;2022-08-19T00:21:27;24.73;;;22.40;;
44746;SDS011;30472;49.490;10.972;2022-08-19T00:23:54;25.13;;;21.57;;
44746;SDS011;30472;49.490;10.972;2022-08-19T00:26:23;24.77;;;22.37;;
44746;SDS011;30472;49.490;10.972;2022-08-19T00:28:51;24.87;;;22.47;;
44746;SDS011;30472;49.490;10.972;2022-08-19T00:31:16;27.87;;;22.70;;
44746;SDS011;30472;49.490;10.972;2022-08-19T00:33:42;24.83;;;22.17;;
44746;SDS011;30472;49.490;10.972;2022-08-19T00:36:08;24.20;;;21.70;;
44746;SDS011;30472;49.490;10.972;2022-08-19T00:38:36;24.40;;;22.00;;
44746;SDS011;30472;49.490;10.972;2022-08-19T00:41:04;26.47;;;23.50;;
44746;SDS011;30472;49.490;10.972;2022-08-19T00:43:30;25.20;;;22.67;;
44746;SDS011;30472;49.490;10.972;2022-08-19T00:45:56;27.77;;;24.97;;
44746;SDS011;30472;49.490;10.972;2022-08-19T00:48:21;26.77;;;23.80;;
44746;SDS011;30472;49.490;10.972;2022-08-19T00:50:48;24.73;;;22.17;;
44746;SDS011;30472;49.490;10.972;2022-08-19T00:53:16;26.43;;;23.80;;
44746;SDS011;30472;49.490;10.972;2022-08-19T00:55:48;28.20;;;24.50;;
44746;SDS011;30472;49.490;10.972;2022-08-19T00:58:16;25.50;;;22.90;;
44746;SDS011;30472;49.490;10.972;2022-08-19T01:00:44;27.43;;;24.73;;
44746;SDS011;30472;49.490;10.972;2022-08-19T01:03:11;25.70;;;23.20;;
44746;SDS011;30472;49.490;10.972;2022-08-19T01:05:39;26.13;;;23.47;;
44746;SDS011;30472;49.490;10.972;2022-08-19T01:08:07;26.20;;;23.60;;
44746;SDS011;30472;49.490;10.972;2022-08-19T01:10:37;26.07;;;23.33;;
44746;SDS011;30472;49.490;10.972;2022-08-19T01:13:06;25.63;;;23.10;;
44746;SDS011;30472;49.490;10.972;2022-08-19T01:15:33;25.10;;;22.60;;
44746;SDS011;30472;49.490;10.972;2022-08-19T01:18:09;25.97;;;23.23;;
44746;SDS011;30472;49.490;10.972;2022-08-19T01:20:38;25.07;;;22.63;;
44746;SDS011;30472;49.490;10.972;2022-08-19T01:23:04;25.73;;;23.10;;
44746;SDS011;30472;49.490;10.972;2022-08-19T01:25:32;24.17;;;21.77;;
44746;SDS011;30472;49.490;10.972;2022-08-19T01:28:03;29.20;;;23.00;;
44746;SDS011;30472;49.490;10.972;2022-08-19T01:30:32;24.97;;;22.53;;
44746;SDS011;30472;49.490;10.972;2022-08-19T01:33:00;25.57;;;23.17;;
44746;SDS011;30472;49.490;10.972;2022-08-19T01:35:27;26.20;;;23.50;;
44746;SDS011;30472;49.490;10.972;2022-08-19T01:37:56;25.17;;;22.67;;
44746;SDS011;30472;49.490;10.972;2022-08-19T01:40:27;25.97;;;23.43;;
44746;SDS011;30472;49.490;10.972;2022-08-19T01:42:55;27.53;;;24.63;;
44746;SDS011;30472;49.490;10.972;2022-08-19T01:45:22;27.67;;;24.70;;
44746;SDS011;30472;49.490;10.972;2022-08-19T01:47:50;27.67;;;24.80;;
44746;SDS011;30472;49.490;10.972;2022-08-19T01:50:15;27.90;;;25.10;;
44746;SDS011;30472;49.490;10.972;2022-08-19T01:52:42;25.60;;;23.10;;
44746;SDS011;30472;49.490;10.972;2022-08-19T01:55:10;28.03;;;25.33;;
44746;SDS011;30472;49.490;10.972;2022-08-19T01:57:39;27.20;;;24.67;;
44746;SDS011;30472;49.490;10.972;2022-08-19T02:00:08;29.33;;;26.20;;
44746;SDS011;30472;49.490;10.972;2022-08-19T02:02:36;29.50;;;24.90;;
44746;SDS011;30472;49.490;10.972;2022-08-19T02:05:02;29.23;;;26.30;;
44746;SDS011;30472;49.490;10.972;2022-08-19T02:07:28;28.23;;;25.33;;
44746;SDS011;30472;49.490;10.972;2022-08-19T02:09:54;28.47;;;25.37;;
44746;SDS011;30472;49.490;10.972;2022-08-19T02:12:20;30.93;;;27.43;;
44746;SDS011;30472;49.490;10.972;2022-08-19T02:14:46;29.33;;;25.87;;
44746;SDS011;30472;49.490;10.972;2022-08-19T02:17:12;29.00;;;26.03;;
44746;SDS011;30472;49.490;10.972;2022-08-19T02:19:38;29.27;;;26.10;;
44746;SDS011;30472;49.490;10.972;2022-08-19T02:22:04;29.07;;;26.03;;
44746;SDS011;30472;49.490;10.972;2022-08-19T02:24:29;30.23;;;27.20;;
44746;SDS011;30472;49.490;10.972;2022-08-19T02:26:55;33.13;;;28.23;;
44746;SDS011;30472;49.490;10.972;2022-08-19T02:29:21;32.00;;;28.50;;
44746;SDS011;30472;49.490;10.972;2022-08-19T02:31:47;31.33;;;28.10;;
44746;SDS011;30472;49.490;10.972;2022-08-19T02:34:13;30.13;;;26.93;;
44746;SDS011;30472;49.490;10.972;2022-08-19T02:36:38;31.63;;;26.83;;
44746;SDS011;30472;49.490;10.972;2022-08-19T02:39:04;32.60;;;29.03;;
44746;SDS011;30472;49.490;10.972;2022-08-19T02:41:30;29.33;;;25.83;;
44746;SDS011;30472;49.490;10.972;2022-08-19T02:43:59;31.17;;;27.90;;
44746;SDS011;30472;49.490;10.972;2022-08-19T02:46:30;29.23;;;26.17;;
44746;SDS011;30472;49.490;10.972;2022-08-19T02:48:57;30.57;;;27.27;;
44746;SDS011;30472;49.490;10.972;2022-08-19T02:51:29;30.67;;;27.37;;
44746;SDS011;30472;49.490;10.972;2022-08-19T02:54:06;28.03;;;25.00;;
44746;SDS011;30472;49.490;10.972;2022-08-19T02:56:36;30.77;;;27.33;;
44746;SDS011;30472;49.490;10.972;2022-08-19T02:59:02;30.43;;;26.67;;
44746;SDS011;30472;49.490;10.972;2022-08-19T03:01:33;29.83;;;26.87;;
44746;SDS011;30472;49.490;10.972;2022-08-19T03:04:00;29.87;;;26.77;;
44746;SDS011;30472;49.490;10.972;2022-08-19T03:06:28;31.37;;;26.93;;
44746;SDS011;30472;49.490;10.972;2022-08-19T03:08:54;29.83;;;26.63;;
44746;SDS011;30472;49.490;10.972;2022-08-19T03:13:48;29.60;;;26.50;;
44746;SDS011;30472;49.490;10.972;2022-08-19T03:16:15;30.93;;;27.73;;
44746;SDS011;30472;49.490;10.972;2022-08-19T03:18:41;28.50;;;25.50;;
44746;SDS011;30472;49.490;10.972;2022-08-19T03:21:07;29.73;;;26.53;;
44746;SDS011;30472;49.490;10.972;2022-08-19T03:23:33;30.00;;;26.83;;
44746;SDS011;30472;49.490;10.972;2022-08-19T03:26:02;31.43;;;28.20;;
44746;SDS011;30472;49.490;10.972;2022-08-19T03:28:29;30.33;;;27.07;;
44746;SDS011;30472;49.490;10.972;2022-08-19T03:31:01;29.83;;;26.80;;
44746;SDS011;30472;49.490;10.972;2022-08-19T03:33:29;31.23;;;27.90;;
44746;SDS011;30472;49.490;10.972;2022-08-19T03:36:03;30.30;;;27.03;;
44746;SDS011;30472;49.490;10.972;2022-08-19T03:38:45;29.80;;;26.60;;
44746;SDS011;30472;49.490;10.972;2022-08-19T03:41:17;35.20;;;28.60;;
44746;SDS011;30472;49.490;10.972;2022-08-19T03:43:44;33.47;;;26.83;;
44746;SDS011;30472;49.490;10.972;2022-08-19T03:46:16;33.17;;;28.97;;
44746;SDS011;30472;49.490;10.972;2022-08-19T03:48:46;31.47;;;28.03;;
44746;SDS011;30472;49.490;10.972;2022-08-19T03:51:18;30.20;;;26.97;;
44746;SDS011;30472;49.490;10.972;2022-08-19T03:53:50;33.40;;;27.90;;
44746;SDS011;30472;49.490;10.972;2022-08-19T03:56:16;30.57;;;27.13;;
44746;SDS011;30472;49.490;10.972;2022-08-19T03:58:42;29.93;;;26.63;;
44746;SDS011;30472;49.490;10.972;2022-08-19T04:01:09;30.57;;;27.27;;
44746;SDS011;30472;49.490;10.972;2022-08-19T04:03:37;32.53;;;29.00;;
44746;SDS011;30472;49.490;10.972;2022-08-19T04:06:13;36.17;;;29.73;;
44746;SDS011;30472;49.490;10.972;2022-08-19T04:08:41;35.70;;;29.53;;
44746;SDS011;30472;49.490;10.972;2022-08-19T04:11:08;33.20;;;27.77;;
44746;SDS011;30472;49.490;10.972;2022-08-19T04:13:36;32.47;;;28.07;;
44746;SDS011;30472;49.490;10.972;2022-08-19T04:16:02;32.70;;;27.10;;
44746;SDS011;30472;49.490;10.972;2022-08-19T04:18:29;31.40;;;27.97;;
44746;SDS011;30472;49.490;10.972;2022-08-19T04:20:55;34.43;;;29.53;;
44746;SDS011;30472;49.490;10.972;2022-08-19T04:23:22;32.53;;;28.43;;
44746;SDS011;30472;49.490;10.972;2022-08-19T04:25:48;32.27;;;28.80;;
44746;SDS011;30472;49.490;10.972;2022-08-19T04:28:14;35.30;;;27.67;;
44746;SDS011;30472;49.490;10.972;2022-08-19T04:33:06;32.37;;;28.43;;
44746;SDS011;30472;49.490;10.972;2022-08-19T04:35:37;35.60;;;28.07;;
44746;SDS011;30472;49.490;10.972;2022-08-19T04:38:04;33.53;;;28.27;;
44746;SDS011;30472;49.490;10.972;2022-08-19T04:40:30;33.27;;;28.13;;
44746;SDS011;30472;49.490;10.972;2022-08-19T04:43:14;33.00;;;28.27;;
44746;SDS011;30472;49.490;10.972;2022-08-19T04:45:41;36.67;;;28.67;;
44746;SDS011;30472;49.490;10.972;2022-08-19T04:48:11;34.23;;;28.37;;
44746;SDS011;30472;49.490;10.972;2022-08-19T04:50:41;33.50;;;27.63;;
44746;SDS011;30472;49.490;10.972;2022-08-19T04:53:08;34.23;;;28.70;;
44746;SDS011;30472;49.490;10.972;2022-08-19T04:55:34;31.20;;;27.63;;
44746;SDS011;30472;49.490;10.972;2022-08-19T04:58:00;32.67;;;27.63;;
44746;SDS011;30472;49.490;10.972;2022-08-19T05:00:27;33.53;;;28.13;;
44746;SDS011;30472;49.490;10.972;2022-08-19T05:02:53;31.13;;;27.23;;
44746;SDS011;30472;49.490;10.972;2022-08-19T05:05:18;31.13;;;27.67;;
44746;SDS011;30472;49.490;10.972;2022-08-19T05:07:44;31.13;;;27.47;;
44746;SDS011;30472;49.490;10.972;2022-08-19T05:10:10;34.97;;;28.47;;
44746;SDS011;30472;49.490;10.972;2022-08-19T05:12:37;32.33;;;28.20;;
44746;SDS011;30472;49.490;10.972;2022-08-19T05:15:03;34.17;;;29.30;;
44746;SDS011;30472;49.490;10.972;2022-08-19T05:17:30;32.23;;;28.23;;
44746;SDS011;30472;49.490;10.972;2022-08-19T05:19:56;34.33;;;28.43;;
44746;SDS011;30472;49.490;10.972;2022-08-19T05:22:41;34.60;;;28.67;;
44746;SDS011;30472;49.490;10.972;2022-08-19T05:25:09;30.40;;;27.10;;
44746;SDS011;30472;49.490;10.972;2022-08-19T05:27:37;30.77;;;27.40;;
44746;SDS011;30472;49.490;10.972;2022-08-19T05:30:03;31.30;;;27.20;;
44746;SDS011;30472;49.490;10.972;2022-08-19T05:32:29;35.70;;;27.87;;
44746;SDS011;30472;49.490;10.972;2022-08-19T05:34:55;31.70;;;28.30;;
44746;SDS011;30472;49.490;10.972;2022-08-19T05:37:20;33.40;;;29.27;;
44746;SDS011;30472;49.490;10.972;2022-08-19T05:39:47;31.40;;;27.10;;
44746;SDS011;30472;49.490;10.972;2022-08-19T05:42:14;33.40;;;28.13;;
44746;SDS011;30472;49.490;10.972;2022-08-19T05:44:41;35.00;;;28.97;;
44746;SDS011;30472;49.490;10.972;2022-08-19T05:47:09;32.60;;;27.50;;
44746;SDS011;30472;49.490;10.972;2022-08-19T05:49:36;32.60;;;27.60;;
44746;SDS011;30472;49.490;10.972;2022-08-19T05:52:03;31.33;;;27.67;;
44746;SDS011;30472;49.490;10.972;2022-08-19T05:54:30;31.90;;;27.23;;
44746;SDS011;30472;49.490;10.972;2022-08-19T05:56:56;30.87;;;26.60;;
44746;SDS011;30472;49.490;10.972;2022-08-19T05:59:22;32.43;;;28.37;;
44746;SDS011;30472;49.490;10.972;2022-08-19T06:01:49;29.37;;;26.33;;
44746;SDS011;30472;49.490;10.972;2022-08-19T06:04:16;31.50;;;27.50;;
44746;SDS011;30472;49.490;10.972;2022-08-19T06:06:45;31.83;;;26.43;;
44746;SDS011;30472;49.490;10.972;2022-08-19T06:09:11;30.70;;;26.77;;
44746;SDS011;30472;49.490;10.972;2022-08-19T06:11:48;31.47;;;27.30;;
44746;SDS011;30472;49.490;10.972;2022-08-19T06:14:19;29.80;;;26.60;;
44746;SDS011;30472;49.490;10.972;2022-08-19T06:16:49;26.30;;;23.40;;
44746;SDS011;30472;49.490;10.972;2022-08-19T06:19:19;28.70;;;25.67;;
44746;SDS011;30472;49.490;10.972;2022-08-19T06:21:47;27.60;;;24.70;;
44746;SDS011;30472;49.490;10.972;2022-08-19T06:24:15;29.63;;;24.83;;
44746;SDS011;30472;49.490;10.972;2022-08-19T06:26:44;27.43;;;24.43;;
44746;SDS011;30472;49.490;10.972;2022-08-19T06:29:12;27.87;;;24.53;;
44746;SDS011;30472;49.490;10.972;2022-08-19T06:31:43;30.13;;;25.93;;
44746;SDS011;30472;49.490;10.972;2022-08-19T06:34:10;28.50;;;24.37;;
44746;SDS011;30472;49.490;10.972;2022-08-19T06:36:38;27.90;;;23.40;;
44746;SDS011;30472;49.490;10.972;2022-08-19T06:39:08;27.20;;;23.77;;
44746;SDS011;30472;49.490;10.972;2022-08-19T06:41:45;26.83;;;23.90;;
44746;SDS011;30472;49.490;10.972;2022-08-19T06:44:13;25.20;;;22.10;;
44746;SDS011;30472;49.490;10.972;2022-08-19T06:46:40;24.92;;;22.33;;
44746;SDS011;30472;49.490;10.972;2022-08-19T06:49:06;23.13;;;20.73;;
44746;SDS011;30472;49.490;10.972;2022-08-19T06:51:34;23.05;;;19.83;;
44746;SDS011;30472;49.490;10.972;2022-08-19T06:54:00;19.75;;;17.80;;
44746;SDS011;30472;49.490;10.972;2022-08-19T06:56:27;17.70;;;15.65;;
44746;SDS011;30472;49.490;10.972;2022-08-19T06:58:59;18.98;;;17.08;;
44746;SDS011;30472;49.490;10.972;2022-08-19T07:01:25;19.77;;;17.77;;
44746;SDS011;30472;49.490;10.972;2022-08-19T07:03:51;19.17;;;17.17;;
44746;SDS011;30472;49.490;10.972;2022-08-19T07:06:17;18.80;;;16.92;;
44746;SDS011;30472;49.490;10.972;2022-08-19T07:08:45;18.40;;;16.48;;
44746;SDS011;30472;49.490;10.972;2022-08-19T07:11:12;18.58;;;16.55;;
44746;SDS011;30472;49.490;10.972;2022-08-19T07:13:40;20.85;;;17.77;;
44746;SDS011;30472;49.490;10.972;2022-08-19T07:16:09;19.65;;;17.60;;
44746;SDS011;30472;49.490;10.972;2022-08-19T07:18:38;19.42;;;17.50;;
44746;SDS011;30472;49.490;10.972;2022-08-19T07:21:06;19.98;;;17.88;;
44746;SDS011;30472;49.490;10.972;2022-08-19T07:23:34;18.60;;;16.70;;
44746;SDS011;30472;49.490;10.972;2022-08-19T07:26:04;19.42;;;17.33;;
44746;SDS011;30472;49.490;10.972;2022-08-19T07:28:34;20.88;;;18.27;;
44746;SDS011;30472;49.490;10.972;2022-08-19T07:31:05;19.80;;;17.70;;
44746;SDS011;30472;49.490;10.972;2022-08-19T07:33:43;20.73;;;18.50;;
44746;SDS011;30472;49.490;10.972;2022-08-19T07:36:10;21.55;;;18.60;;
44746;SDS011;30472;49.490;10.972;2022-08-19T07:38:38;20.65;;;18.55;;
44746;SDS011;30472;49.490;10.972;2022-08-19T07:41:07;22.02;;;19.73;;
44746;SDS011;30472;49.490;10.972;2022-08-19T07:43:35;24.02;;;21.23;;
44746;SDS011;30472;49.490;10.972;2022-08-19T07:46:01;22.27;;;19.77;;
44746;SDS011;30472;49.490;10.972;2022-08-19T07:48:27;22.38;;;20.13;;
44746;SDS011;30472;49.490;10.972;2022-08-19T07:50:57;24.40;;;21.77;;
44746;SDS011;30472;49.490;10.972;2022-08-19T07:53:29;23.83;;;21.42;;
44746;SDS011;30472;49.490;10.972;2022-08-19T07:55:56;25.02;;;21.73;;
44746;SDS011;30472;49.490;10.972;2022-08-19T07:58:28;24.30;;;21.67;;
44746;SDS011;30472;49.490;10.972;2022-08-19T08:00:55;26.42;;;21.85;;
44746;SDS011;30472;49.490;10.972;2022-08-19T08:03:21;26.75;;;22.40;;
44746;SDS011;30472;49.490;10.972;2022-08-19T08:06:07;23.90;;;21.50;;
44746;SDS011;30472;49.490;10.972;2022-08-19T08:08:52;23.77;;;21.07;;
44746;SDS011;30472;49.490;10.972;2022-08-19T08:11:40;24.27;;;21.80;;
44746;SDS011;30472;49.490;10.972;2022-08-19T08:14:13;26.00;;;23.00;;
44746;SDS011;30472;49.490;10.972;2022-08-19T08:16:44;26.53;;;22.00;;
44746;SDS011;30472;49.490;10.972;2022-08-19T08:19:11;24.42;;;21.83;;
44746;SDS011;30472;49.490;10.972;2022-08-19T08:21:39;25.65;;;22.00;;
44746;SDS011;30472;49.490;10.972;2022-08-19T08:24:05;25.55;;;21.83;;
44746;SDS011;30472;49.490;10.972;2022-08-19T08:26:31;30.33;;;23.30;;
44746;SDS011;30472;49.490;10.972;2022-08-19T08:28:56;28.08;;;23.00;;
44746;SDS011;30472;49.490;10.972;2022-08-19T08:31:22;24.65;;;22.02;;
44746;SDS011;30472;49.490;10.972;2022-08-19T08:33:48;23.20;;;20.75;;
44746;SDS011;30472;49.490;10.972;2022-08-19T08:36:14;26.45;;;21.67;;
44746;SDS011;30472;49.490;10.972;2022-08-19T08:38:40;24.42;;;21.83;;
44746;SDS011;30472;49.490;10.972;2022-08-19T08:41:18;24.88;;;22.38;;
44746;SDS011;30472;49.490;10.972;2022-08-19T08:43:47;23.98;;;21.23;;
44746;SDS011;30472;49.490;10.972;2022-08-19T08:49:23;23.63;;;19.95;;
44746;SDS011;30472;49.490;10.972;2022-08-19T08:52:33;23.23;;;20.27;;
44746;SDS011;30472;49.490;10.972;2022-08-19T08:54:50;21.48;;;19.35;;
44746;SDS011;30472;49.490;10.972;2022-08-19T08:57:28;24.48;;;20.70;;
44746;SDS011;30472;49.490;10.972;2022-08-19T08:59:57;22.67;;;20.27;;
44746;SDS011;30472;49.490;10.972;2022-08-19T09:02:25;21.73;;;19.52;;
44746;SDS011;30472;49.490;10.972;2022-08-19T09:04:51;20.30;;;18.30;;
44746;SDS011;30472;49.490;10.972;2022-08-19T09:08:07;21.38;;;19.17;;
44746;SDS011;30472;49.490;10.972;2022-08-19T09:10:33;21.75;;;19.55;;
44746;SDS011;30472;49.490;10.972;2022-08-19T09:13:08;21.52;;;19.35;;
44746;SDS011;30472;49.490;10.972;2022-08-19T09:15:42;23.73;;;20.33;;
44746;SDS011;30472;49.490;10.972;2022-08-19T09:18:14;26.25;;;21.60;;
44746;SDS011;30472;49.490;10.972;2022-08-19T09:20:41;22.73;;;20.23;;
44746;SDS011;30472;49.490;10.972;2022-08-19T09:23:07;22.58;;;20.17;;
44746;SDS011;30472;49.490;10.972;2022-08-19T09:25:34;23.30;;;20.80;;
44746;SDS011;30472;49.490;10.972;2022-08-19T09:28:00;27.75;;;22.38;;
44746;SDS011;30472;49.490;10.972;2022-08-19T09:30:33;23.02;;;20.55;;
44746;SDS011;30472;49.490;10.972;2022-08-19T09:33:04;23.77;;;21.27;;
44746;SDS011;30472;49.490;10.972;2022-08-19T09:35:30;25.00;;;20.23;;
44746;SDS011;30472;49.490;10.972;2022-08-19T09:37:56;24.15;;;20.90;;
44746;SDS011;30472;49.490;10.972;2022-08-19T09:40:23;23.15;;;20.23;;
44746;SDS011;30472;49.490;10.972;2022-08-19T09:42:50;23.67;;;21.17;;
44746;SDS011;30472;49.490;10.972;2022-08-19T09:45:18;22.90;;;19.77;;
44746;SDS011;30472;49.490;10.972;2022-08-19T09:47:51;21.13;;;18.95;;
44746;SDS011;30472;49.490;10.972;2022-08-19T09:50:18;23.88;;;20.27;;
44746;SDS011;30472;49.490;10.972;2022-08-19T09:52:43;23.83;;;21.33;;
44746;SDS011;30472;49.490;10.972;2022-08-19T09:55:10;22.25;;;20.05;;
44746;SDS011;30472;49.490;10.972;2022-08-19T09:57:36;24.58;;;19.98;;
44746;SDS011;30472;49.490;10.972;2022-08-19T10:00:05;23.27;;;20.88;;
44746;SDS011;30472;49.490;10.972;2022-08-19T10:02:33;23.02;;;20.83;;
44746;SDS011;30472;49.490;10.972;2022-08-19T10:05:00;22.98;;;19.33;;
44746;SDS011;30472;49.490;10.972;2022-08-19T10:07:44;20.80;;;18.60;;
44746;SDS011;30472;49.490;10.972;2022-08-19T10:10:10;19.13;;;17.15;;
44746;SDS011;30472;49.490;10.972;2022-08-19T10:12:36;20.30;;;18.15;;
44746;SDS011;30472;49.490;10.972;2022-08-19T10:15:02;19.52;;;17.50;;
44746;SDS011;30472;49.490;10.972;2022-08-19T10:17:29;19.35;;;17.35;;
44746;SDS011;30472;49.490;10.972;2022-08-19T10:19:58;19.30;;;17.27;;
44746;SDS011;30472;49.490;10.972;2022-08-19T10:22:24;20.00;;;17.98;;
44746;SDS011;30472;49.490;10.972;2022-08-19T10:24:50;19.40;;;17.42;;
44746;SDS011;30472;49.490;10.972;2022-08-19T10:27:17;19.02;;;17.13;;
44746;SDS011;30472;49.490;10.972;2022-08-19T10:29:42;22.25;;;19.48;;
44746;SDS011;30472;49.490;10.972;2022-08-19T10:32:08;20.38;;;17.92;;
44746;SDS011;30472;49.490;10.972;2022-08-19T10:34:35;20.48;;;17.08;;
44746;SDS011;30472;49.490;10.972;2022-08-19T10:37:03;19.75;;;17.75;;
44746;SDS011;30472;49.490;10.972;2022-08-19T10:39:34;18.73;;;16.98;;
44746;SDS011;30472;49.490;10.972;2022-08-19T10:42:07;18.50;;;16.42;;
44746;SDS011;30472;49.490;10.972;2022-08-19T10:44:35;19.65;;;17.35;;
44746;SDS011;30472;49.490;10.972;2022-08-19T10:47:01;17.73;;;15.93;;
44746;SDS011;30472;49.490;10.972;2022-08-19T10:49:28;18.15;;;16.15;;
44746;SDS011;30472;49.490;10.972;2022-08-19T10:51:54;17.67;;;15.95;;
44746;SDS011;30472;49.490;10.972;2022-08-19T10:54:39;17.63;;;15.82;;
44746;SDS011;30472;49.490;10.972;2022-08-19T10:57:23;17.40;;;15.73;;
44746;SDS011;30472;49.490;10.972;2022-08-19T10:59:53;17.92;;;14.98;;
44746;SDS011;30472;49.490;10.972;2022-08-19T11:02:20;16.95;;;15.35;;
44746;SDS011;30472;49.490;10.972;2022-08-19T11:04:46;16.52;;;14.95;;
44746;SDS011;30472;49.490;10.972;2022-08-19T11:07:14;19.27;;;16.05;;
44746;SDS011;30472;49.490;10.972;2022-08-19T11:09:41;17.50;;;15.55;;
44746;SDS011;30472;49.490;10.972;2022-08-19T11:12:07;16.90;;;15.10;;
44746;SDS011;30472;49.490;10.972;2022-08-19T11:14:34;16.23;;;14.65;;
44746;SDS011;30472;49.490;10.972;2022-08-19T11:17:01;16.15;;;14.48;;
44746;SDS011;30472;49.490;10.972;2022-08-19T11:19:28;15.02;;;13.52;;
44746;SDS011;30472;49.490;10.972;2022-08-19T11:21:54;16.15;;;14.63;;
44746;SDS011;30472;49.490;10.972;2022-08-19T11:24:20;15.75;;;14.18;;
44746;SDS011;30472;49.490;10.972;2022-08-19T11:26:48;17.08;;;15.10;;
44746;SDS011;30472;49.490;10.972;2022-08-19T11:29:17;15.20;;;13.70;;
44746;SDS011;30472;49.490;10.972;2022-08-19T11:31:50;16.92;;;15.25;;
44746;SDS011;30472;49.490;10.972;2022-08-19T11:34:17;15.48;;;14.10;;
44746;SDS011;30472;49.490;10.972;2022-08-19T11:36:46;19.15;;;17.13;;
44746;SDS011;30472;49.490;10.972;2022-08-19T11:39:13;16.25;;;14.52;;
44746;SDS011;30472;49.490;10.972;2022-08-19T11:41:40;17.08;;;15.27;;
44746;SDS011;30472;49.490;10.972;2022-08-19T11:44:06;16.20;;;14.52;;
44746;SDS011;30472;49.490;10.972;2022-08-19T11:46:33;15.15;;;13.75;;
44746;SDS011;30472;49.490;10.972;2022-08-19T11:49:00;15.05;;;13.45;;
44746;SDS011;30472;49.490;10.972;2022-08-19T11:51:28;15.52;;;13.90;;
44746;SDS011;30472;49.490;10.972;2022-08-19T11:53:54;14.88;;;13.27;;
44746;SDS011;30472;49.490;10.972;2022-08-19T11:56:21;15.27;;;13.65;;
44746;SDS011;30472;49.490;10.972;2022-08-19T11:58:48;15.27;;;13.88;;
44746;SDS011;30472;49.490;10.972;2022-08-19T12:01:15;14.48;;;13.07;;
44746;SDS011;30472;49.490;10.972;2022-08-19T12:03:43;13.98;;;12.65;;
44746;SDS011;30472;49.490;10.972;2022-08-19T12:06:11;14.93;;;13.43;;
44746;SDS011;30472;49.490;10.972;2022-08-19T12:08:39;16.15;;;14.70;;
44746;SDS011;30472;49.490;10.972;2022-08-19T12:11:06;15.60;;;14.20;;
44746;SDS011;30472;49.490;10.972;2022-08-19T12:13:35;15.80;;;14.43;;
44746;SDS011;30472;49.490;10.972;2022-08-19T12:16:07;16.13;;;14.63;;
44746;SDS011;30472;49.490;10.972;2022-08-19T12:18:34;17.60;;;15.65;;
44746;SDS011;30472;49.490;10.972;2022-08-19T12:21:00;17.17;;;14.25;;
44746;SDS011;30472;49.490;10.972;2022-08-19T12:23:26;16.63;;;14.88;;
44746;SDS011;30472;49.490;10.972;2022-08-19T12:25:52;18.02;;;16.27;;
44746;SDS011;30472;49.490;10.972;2022-08-19T12:28:21;20.00;;;17.90;;
44746;SDS011;30472;49.490;10.972;2022-08-19T12:30:49;20.30;;;18.30;;
44746;SDS011;30472;49.490;10.972;2022-08-19T12:33:16;19.30;;;17.17;;
44746;SDS011;30472;49.490;10.972;2022-08-19T12:35:44;20.00;;;18.00;;
44746;SDS011;30472;49.490;10.972;2022-08-19T12:38:12;22.30;;;19.97;;
44746;SDS011;30472;49.490;10.972;2022-08-19T12:40:39;22.40;;;20.10;;
44746;SDS011;30472;49.490;10.972;2022-08-19T12:43:06;24.57;;;20.93;;
44746;SDS011;30472;49.490;10.972;2022-08-19T12:45:32;23.50;;;21.03;;
44746;SDS011;30472;49.490;10.972;2022-08-19T12:47:58;24.03;;;21.70;;
44746;SDS011;30472;49.490;10.972;2022-08-19T12:50:24;24.53;;;22.03;;
44746;SDS011;30472;49.490;10.972;2022-08-19T12:52:49;26.27;;;23.57;;
44746;SDS011;30472;49.490;10.972;2022-08-19T12:55:15;26.57;;;23.80;;
44746;SDS011;30472;49.490;10.972;2022-08-19T12:57:41;27.10;;;24.23;;
44746;SDS011;30472;49.490;10.972;2022-08-19T13:00:11;26.73;;;23.47;;
44746;SDS011;30472;49.490;10.972;2022-08-19T13:02:40;28.30;;;25.23;;
44746;SDS011;30472;49.490;10.972;2022-08-19T13:05:09;29.37;;;25.57;;
44746;SDS011;30472;49.490;10.972;2022-08-19T13:07:37;27.90;;;25.00;;
44746;SDS011;30472;49.490;10.972;2022-08-19T13:10:05;28.70;;;24.90;;
44746;SDS011;30472;49.490;10.972;2022-08-19T13:12:32;28.30;;;25.40;;
44746;SDS011;30472;49.490;10.972;2022-08-19T13:14:58;28.93;;;25.93;;
44746;SDS011;30472;49.490;10.972;2022-08-19T13:17:24;28.43;;;25.60;;
44746;SDS011;30472;49.490;10.972;2022-08-19T13:19:50;29.37;;;25.23;;
44746;SDS011;30472;49.490;10.972;2022-08-19T13:22:15;31.00;;;26.10;;
44746;SDS011;30472;49.490;10.972;2022-08-19T13:24:42;28.53;;;25.10;;
44746;SDS011;30472;49.490;10.972;2022-08-19T13:27:08;29.13;;;25.87;;
44746;SDS011;30472;49.490;10.972;2022-08-19T13:29:33;27.93;;;25.03;;
44746;SDS011;30472;49.490;10.972;2022-08-19T13:32:17;29.23;;;26.33;;
44746;SDS011;30472;49.490;10.972;2022-08-19T13:35:02;27.43;;;24.63;;
44746;SDS011;30472;49.490;10.972;2022-08-19T13:37:29;28.17;;;25.23;;
44746;SDS011;30472;49.490;10.972;2022-08-19T13:40:07;28.17;;;25.30;;
44746;SDS011;30472;49.490;10.972;2022-08-19T13:42:37;29.93;;;26.60;;
44746;SDS011;30472;49.490;10.972;2022-08-19T13:45:08;31.77;;;28.47;;
44746;SDS011;30472;49.490;10.972;2022-08-19T13:47:34;32.43;;;28.90;;
44746;SDS011;30472;49.490;10.972;2022-08-19T13:50:04;33.00;;;29.60;;
44746;SDS011;30472;49.490;10.972;2022-08-19T13:52:30;34.93;;;31.20;;
44746;SDS011;30472;49.490;10.972;2022-08-19T13:54:55;33.93;;;30.17;;
44746;SDS011;30472;49.490;10.972;2022-08-19T13:57:21;35.90;;;32.03;;
44746;SDS011;30472;49.490;10.972;2022-08-19T13:59:47;32.90;;;29.37;;
44746;SDS011;30472;49.490;10.972;2022-08-19T14:02:12;32.10;;;28.83;;
44746;SDS011;30472;49.490;10.972;2022-08-19T14:04:38;33.33;;;29.70;;
44746;SDS011;30472;49.490;10.972;2022-08-19T14:07:04;33.43;;;29.80;;
44746;SDS011;30472;49.490;10.972;2022-08-19T14:09:30;31.70;;;28.40;;
44746;SDS011;30472;49.490;10.972;2022-08-19T14:11:56;34.80;;;30.73;;
44746;SDS011;30472;49.490;10.972;2022-08-19T14:14:22;32.87;;;29.63;;
44746;SDS011;30472;49.490;10.972;2022-08-19T14:16:48;34.37;;;30.73;;
44746;SDS011;30472;49.490;10.972;2022-08-19T14:19:14;33.97;;;30.20;;
44746;SDS011;30472;49.490;10.972;2022-08-19T14:21:39;33.60;;;30.17;;
44746;SDS011;30472;49.490;10.972;2022-08-19T14:24:06;33.57;;;29.93;;